sensor_id;sensor_type;location;lat;lon;timestamp;P1;durP1;ratioP1;P2;durP2;ratioP2
28934;SDS011;16044;52.726;-2.108;2023-07-29T00:01:31;5.70;;;1.30;;
28934;SDS011;16044;52.726;-2.108;2023-07-29T00:04:03;2.65;;;1.30;;
28934;SDS011;16044;52.726;-2.108;2023-07-29T00:06:35;2.38;;;1.15;;
28934;SDS011;16044;52.726;-2.108;2023-07-29T00:09:05;3.75;;;1.40;;
28934;SDS011;16044;52.726;-2.108;2023-07-29T00:11:38;5.70;;;1.40;;
28934;SDS011;16044;52.726;-2.108;2023-07-29T00:14:08;4.15;;;1.40;;
28934;SDS011;16044;52.726;-2.108;2023-07-29T00:16:39;2.80;;;1.40;;
28934;SDS011;16044;52.726;-2.108;2023-07-29T00:19:09;4.10;;;1.63;;
28934;SDS011;16044;52.726;-2.108;2023-07-29T00:21:39;4.88;;;1.65;;
28934;SDS011;16044;52.726;-2.108;2023-07-29T00:24:10;4.35;;;1.40;;
28934;SDS011;16044;52.726;-2.108;2023-07-29T00:26:43;3.28;;;1.40;;
28934;SDS011;16044;52.726;-2.108;2023-07-29T00:29:13;3.67;;;1.40;;
28934;SDS011;16044;52.726;-2.108;2023-07-29T00:31:43;2.90;;;1.20;;
28934;SDS011;16044;52.726;-2.108;2023-07-29T00:34:14;3.55;;;1.33;;
28934;SDS011;16044;52.726;-2.108;2023-07-29T00:36:46;3.03;;;1.45;;
28934;SDS011;16044;52.726;-2.108;2023-07-29T00:39:16;6.47;;;1.30;;
28934;SDS011;16044;52.726;-2.108;2023-07-29T00:41:49;4.32;;;1.55;;
28934;SDS011;16044;52.726;-2.108;2023-07-29T00:44:19;3.50;;;1.48;;
28934;SDS011;16044;52.726;-2.108;2023-07-29T00:46:50;6.70;;;1.65;;
28934;SDS011;16044;52.726;-2.108;2023-07-29T00:49:21;5.13;;;1.65;;
28934;SDS011;16044;52.726;-2.108;2023-07-29T00:51:52;4.15;;;1.55;;
28934;SDS011;16044;52.726;-2.108;2023-07-29T00:54:22;2.47;;;1.23;;
28934;SDS011;16044;52.726;-2.108;2023-07-29T00:56:55;3.40;;;1.35;;
28934;SDS011;16044;52.726;-2.108;2023-07-29T00:59:25;5.72;;;1.42;;
28934;SDS011;16044;52.726;-2.108;2023-07-29T01:01:58;4.13;;;1.30;;
28934;SDS011;16044;52.726;-2.108;2023-07-29T01:04:29;5.53;;;1.55;;
28934;SDS011;16044;52.726;-2.108;2023-07-29T01:07:02;6.47;;;1.40;;
28934;SDS011;16044;52.726;-2.108;2023-07-29T01:09:53;3.47;;;1.40;;
28934;SDS011;16044;52.726;-2.108;2023-07-29T01:12:36;4.22;;;1.50;;
28934;SDS011;16044;52.726;-2.108;2023-07-29T01:15:21;6.38;;;1.40;;
28934;SDS011;16044;52.726;-2.108;2023-07-29T01:17:59;4.30;;;1.50;;
28934;SDS011;16044;52.726;-2.108;2023-07-29T01:20:36;3.83;;;1.35;;
28934;SDS011;16044;52.726;-2.108;2023-07-29T01:23:09;4.28;;;1.50;;
28934;SDS011;16044;52.726;-2.108;2023-07-29T01:25:42;5.82;;;1.50;;
28934;SDS011;16044;52.726;-2.108;2023-07-29T01:28:13;3.67;;;1.45;;
28934;SDS011;16044;52.726;-2.108;2023-07-29T01:30:43;4.13;;;1.38;;
28934;SDS011;16044;52.726;-2.108;2023-07-29T01:33:16;5.40;;;1.52;;
28934;SDS011;16044;52.726;-2.108;2023-07-29T01:35:52;6.10;;;1.75;;
28934;SDS011;16044;52.726;-2.108;2023-07-29T01:38:29;3.08;;;1.13;;
28934;SDS011;16044;52.726;-2.108;2023-07-29T01:41:06;6.13;;;1.58;;
28934;SDS011;16044;52.726;-2.108;2023-07-29T01:43:38;7.97;;;1.88;;
28934;SDS011;16044;52.726;-2.108;2023-07-29T01:46:11;8.13;;;1.60;;
28934;SDS011;16044;52.726;-2.108;2023-07-29T01:48:41;6.35;;;1.50;;
28934;SDS011;16044;52.726;-2.108;2023-07-29T01:51:12;9.70;;;1.98;;
28934;SDS011;16044;52.726;-2.108;2023-07-29T01:53:44;7.18;;;1.60;;
28934;SDS011;16044;52.726;-2.108;2023-07-29T01:56:17;6.60;;;1.60;;
28934;SDS011;16044;52.726;-2.108;2023-07-29T01:58:47;4.88;;;1.38;;
28934;SDS011;16044;52.726;-2.108;2023-07-29T02:01:18;5.57;;;1.58;;
28934;SDS011;16044;52.726;-2.108;2023-07-29T02:03:48;7.03;;;1.90;;
28934;SDS011;16044;52.726;-2.108;2023-07-29T02:06:22;5.45;;;1.85;;
28934;SDS011;16044;52.726;-2.108;2023-07-29T02:08:54;8.43;;;1.80;;
28934;SDS011;16044;52.726;-2.108;2023-07-29T02:11:27;6.82;;;1.70;;
28934;SDS011;16044;52.726;-2.108;2023-07-29T02:13:58;3.83;;;1.35;;
28934;SDS011;16044;52.726;-2.108;2023-07-29T02:16:28;7.28;;;1.77;;
28934;SDS011;16044;52.726;-2.108;2023-07-29T02:18:59;5.05;;;1.67;;
28934;SDS011;16044;52.726;-2.108;2023-07-29T02:21:29;7.05;;;1.90;;
28934;SDS011;16044;52.726;-2.108;2023-07-29T02:24:00;3.28;;;1.50;;
28934;SDS011;16044;52.726;-2.108;2023-07-29T02:26:33;5.68;;;1.70;;
28934;SDS011;16044;52.726;-2.108;2023-07-29T02:29:04;7.40;;;1.83;;
28934;SDS011;16044;52.726;-2.108;2023-07-29T02:31:34;6.28;;;1.75;;
28934;SDS011;16044;52.726;-2.108;2023-07-29T02:34:05;5.47;;;1.60;;
28934;SDS011;16044;52.726;-2.108;2023-07-29T02:36:35;7.55;;;1.75;;
28934;SDS011;16044;52.726;-2.108;2023-07-29T02:39:05;5.50;;;1.60;;
28934;SDS011;16044;52.726;-2.108;2023-07-29T02:41:38;7.90;;;1.73;;
28934;SDS011;16044;52.726;-2.108;2023-07-29T02:44:08;7.03;;;1.67;;
28934;SDS011;16044;52.726;-2.108;2023-07-29T02:46:39;5.43;;;1.58;;
28934;SDS011;16044;52.726;-2.108;2023-07-29T02:49:09;6.82;;;1.42;;
28934;SDS011;16044;52.726;-2.108;2023-07-29T02:51:40;7.28;;;1.73;;
28934;SDS011;16044;52.726;-2.108;2023-07-29T02:54:10;5.63;;;1.63;;
28934;SDS011;16044;52.726;-2.108;2023-07-29T02:56:43;8.20;;;1.77;;
28934;SDS011;16044;52.726;-2.108;2023-07-29T02:59:13;6.60;;;1.70;;
28934;SDS011;16044;52.726;-2.108;2023-07-29T03:01:43;7.03;;;1.63;;
28934;SDS011;16044;52.726;-2.108;2023-07-29T03:04:14;5.68;;;1.70;;
28934;SDS011;16044;52.726;-2.108;2023-07-29T03:06:44;8.23;;;1.80;;
28934;SDS011;16044;52.726;-2.108;2023-07-29T03:09:15;5.80;;;1.80;;
28934;SDS011;16044;52.726;-2.108;2023-07-29T03:11:47;10.90;;;2.17;;
28934;SDS011;16044;52.726;-2.108;2023-07-29T03:14:19;9.13;;;2.08;;
28934;SDS011;16044;52.726;-2.108;2023-07-29T03:16:50;6.57;;;1.55;;
28934;SDS011;16044;52.726;-2.108;2023-07-29T03:19:20;6.32;;;1.77;;
28934;SDS011;16044;52.726;-2.108;2023-07-29T03:21:50;16.40;;;2.58;;
28934;SDS011;16044;52.726;-2.108;2023-07-29T03:24:21;6.13;;;1.73;;
28934;SDS011;16044;52.726;-2.108;2023-07-29T03:26:53;8.52;;;1.88;;
28934;SDS011;16044;52.726;-2.108;2023-07-29T03:29:24;7.70;;;2.20;;
28934;SDS011;16044;52.726;-2.108;2023-07-29T03:31:54;9.43;;;1.85;;
28934;SDS011;16044;52.726;-2.108;2023-07-29T03:34:24;9.57;;;1.77;;
28934;SDS011;16044;52.726;-2.108;2023-07-29T03:36:55;10.90;;;2.17;;
28934;SDS011;16044;52.726;-2.108;2023-07-29T03:39:25;8.00;;;2.15;;
28934;SDS011;16044;52.726;-2.108;2023-07-29T03:41:58;9.10;;;2.00;;
28934;SDS011;16044;52.726;-2.108;2023-07-29T03:44:29;9.57;;;2.05;;
28934;SDS011;16044;52.726;-2.108;2023-07-29T03:47:02;8.85;;;2.10;;
28934;SDS011;16044;52.726;-2.108;2023-07-29T03:49:32;9.32;;;2.30;;
28934;SDS011;16044;52.726;-2.108;2023-07-29T03:52:03;10.88;;;2.33;;
28934;SDS011;16044;52.726;-2.108;2023-07-29T03:54:35;8.75;;;1.92;;
28934;SDS011;16044;52.726;-2.108;2023-07-29T03:57:08;11.75;;;2.30;;
28934;SDS011;16044;52.726;-2.108;2023-07-29T03:59:38;10.90;;;2.33;;
28934;SDS011;16044;52.726;-2.108;2023-07-29T04:02:08;10.52;;;2.50;;
28934;SDS011;16044;52.726;-2.108;2023-07-29T04:04:38;10.90;;;2.22;;
28934;SDS011;16044;52.726;-2.108;2023-07-29T04:07:10;12.98;;;2.53;;
28934;SDS011;16044;52.726;-2.108;2023-07-29T04:09:41;11.00;;;2.92;;
28934;SDS011;16044;52.726;-2.108;2023-07-29T04:12:14;8.38;;;2.10;;
28934;SDS011;16044;52.726;-2.108;2023-07-29T04:14:48;8.73;;;2.55;;
28934;SDS011;16044;52.726;-2.108;2023-07-29T04:17:18;8.85;;;2.35;;
28934;SDS011;16044;52.726;-2.108;2023-07-29T04:19:49;10.32;;;2.63;;
28934;SDS011;16044;52.726;-2.108;2023-07-29T04:22:19;6.53;;;2.30;;
28934;SDS011;16044;52.726;-2.108;2023-07-29T04:24:49;12.38;;;2.67;;
28934;SDS011;16044;52.726;-2.108;2023-07-29T04:27:23;9.38;;;2.38;;
28934;SDS011;16044;52.726;-2.108;2023-07-29T04:29:53;7.50;;;2.30;;
28934;SDS011;16044;52.726;-2.108;2023-07-29T04:32:23;8.13;;;2.47;;
28934;SDS011;16044;52.726;-2.108;2023-07-29T04:34:54;8.63;;;2.50;;
28934;SDS011;16044;52.726;-2.108;2023-07-29T04:37:24;9.20;;;2.72;;
28934;SDS011;16044;52.726;-2.108;2023-07-29T04:39:54;10.95;;;2.60;;
28934;SDS011;16044;52.726;-2.108;2023-07-29T04:42:27;10.10;;;2.70;;
28934;SDS011;16044;52.726;-2.108;2023-07-29T04:44:58;7.82;;;2.63;;
28934;SDS011;16044;52.726;-2.108;2023-07-29T04:47:28;10.30;;;3.25;;
28934;SDS011;16044;52.726;-2.108;2023-07-29T04:49:58;8.25;;;2.60;;
28934;SDS011;16044;52.726;-2.108;2023-07-29T04:52:29;6.47;;;2.38;;
28934;SDS011;16044;52.726;-2.108;2023-07-29T04:54:59;9.40;;;2.67;;
28934;SDS011;16044;52.726;-2.108;2023-07-29T04:57:32;10.18;;;2.75;;
28934;SDS011;16044;52.726;-2.108;2023-07-29T05:00:02;8.27;;;3.00;;
28934;SDS011;16044;52.726;-2.108;2023-07-29T05:02:34;10.63;;;3.22;;
28934;SDS011;16044;52.726;-2.108;2023-07-29T05:05:04;7.85;;;2.90;;
28934;SDS011;16044;52.726;-2.108;2023-07-29T05:07:36;9.85;;;2.80;;
28934;SDS011;16044;52.726;-2.108;2023-07-29T05:10:07;8.88;;;2.80;;
28934;SDS011;16044;52.726;-2.108;2023-07-29T05:12:40;8.88;;;2.63;;
28934;SDS011;16044;52.726;-2.108;2023-07-29T05:15:11;10.90;;;3.13;;
28934;SDS011;16044;52.726;-2.108;2023-07-29T05:17:41;9.63;;;2.90;;
28934;SDS011;16044;52.726;-2.108;2023-07-29T05:20:11;17.42;;;3.38;;
28934;SDS011;16044;52.726;-2.108;2023-07-29T05:22:42;9.77;;;2.90;;
28934;SDS011;16044;52.726;-2.108;2023-07-29T05:25:12;11.13;;;2.95;;
28934;SDS011;16044;52.726;-2.108;2023-07-29T05:27:45;9.60;;;3.30;;
28934;SDS011;16044;52.726;-2.108;2023-07-29T05:30:15;15.63;;;3.33;;
28934;SDS011;16044;52.726;-2.108;2023-07-29T05:32:46;10.18;;;2.95;;
28934;SDS011;16044;52.726;-2.108;2023-07-29T05:35:16;9.88;;;3.17;;
28934;SDS011;16044;52.726;-2.108;2023-07-29T05:37:47;10.77;;;3.13;;
28934;SDS011;16044;52.726;-2.108;2023-07-29T05:40:17;10.25;;;3.13;;
28934;SDS011;16044;52.726;-2.108;2023-07-29T05:42:51;13.57;;;3.17;;
28934;SDS011;16044;52.726;-2.108;2023-07-29T05:45:21;13.73;;;3.30;;
28934;SDS011;16044;52.726;-2.108;2023-07-29T05:47:51;10.40;;;3.03;;
28934;SDS011;16044;52.726;-2.108;2023-07-29T05:50:23;10.98;;;3.28;;
28934;SDS011;16044;52.726;-2.108;2023-07-29T05:52:53;10.23;;;3.03;;
28934;SDS011;16044;52.726;-2.108;2023-07-29T05:55:23;9.88;;;3.20;;
28934;SDS011;16044;52.726;-2.108;2023-07-29T05:57:56;8.50;;;3.25;;
28934;SDS011;16044;52.726;-2.108;2023-07-29T06:00:26;8.23;;;3.25;;
28934;SDS011;16044;52.726;-2.108;2023-07-29T06:02:57;11.30;;;3.05;;
28934;SDS011;16044;52.726;-2.108;2023-07-29T06:05:27;9.75;;;2.85;;
28934;SDS011;16044;52.726;-2.108;2023-07-29T06:07:58;11.25;;;3.13;;
28934;SDS011;16044;52.726;-2.108;2023-07-29T06:10:28;8.70;;;2.92;;
28934;SDS011;16044;52.726;-2.108;2023-07-29T06:13:01;11.15;;;2.80;;
28934;SDS011;16044;52.726;-2.108;2023-07-29T06:15:31;10.57;;;3.60;;
28934;SDS011;16044;52.726;-2.108;2023-07-29T06:18:01;8.70;;;2.63;;
28934;SDS011;16044;52.726;-2.108;2023-07-29T06:20:32;12.07;;;2.60;;
28934;SDS011;16044;52.726;-2.108;2023-07-29T06:23:03;9.15;;;2.85;;
28934;SDS011;16044;52.726;-2.108;2023-07-29T06:25:33;7.60;;;2.80;;
28934;SDS011;16044;52.726;-2.108;2023-07-29T06:28:06;7.88;;;2.90;;
28934;SDS011;16044;52.726;-2.108;2023-07-29T06:30:36;9.85;;;2.80;;
28934;SDS011;16044;52.726;-2.108;2023-07-29T06:33:07;8.85;;;2.70;;
28934;SDS011;16044;52.726;-2.108;2023-07-29T06:35:37;9.82;;;2.90;;
28934;SDS011;16044;52.726;-2.108;2023-07-29T06:38:08;10.63;;;2.80;;
28934;SDS011;16044;52.726;-2.108;2023-07-29T06:40:38;11.25;;;2.75;;
28934;SDS011;16044;52.726;-2.108;2023-07-29T06:43:11;6.70;;;2.40;;
28934;SDS011;16044;52.726;-2.108;2023-07-29T06:45:41;9.25;;;2.38;;
28934;SDS011;16044;52.726;-2.108;2023-07-29T06:48:12;9.07;;;2.63;;
28934;SDS011;16044;52.726;-2.108;2023-07-29T06:50:42;7.30;;;2.40;;
28934;SDS011;16044;52.726;-2.108;2023-07-29T06:53:12;9.30;;;2.63;;
28934;SDS011;16044;52.726;-2.108;2023-07-29T06:55:43;10.05;;;2.72;;
28934;SDS011;16044;52.726;-2.108;2023-07-29T06:58:16;8.38;;;2.38;;
28934;SDS011;16044;52.726;-2.108;2023-07-29T07:00:46;9.32;;;2.42;;
28934;SDS011;16044;52.726;-2.108;2023-07-29T07:03:17;7.63;;;2.45;;
28934;SDS011;16044;52.726;-2.108;2023-07-29T07:05:47;7.25;;;2.47;;
28934;SDS011;16044;52.726;-2.108;2023-07-29T07:08:18;7.38;;;2.25;;
28934;SDS011;16044;52.726;-2.108;2023-07-29T07:10:48;9.45;;;2.50;;
28934;SDS011;16044;52.726;-2.108;2023-07-29T07:13:21;6.72;;;1.98;;
28934;SDS011;16044;52.726;-2.108;2023-07-29T07:15:53;9.23;;;2.30;;
28934;SDS011;16044;52.726;-2.108;2023-07-29T07:18:24;10.90;;;2.35;;
28934;SDS011;16044;52.726;-2.108;2023-07-29T07:20:54;7.18;;;2.00;;
28934;SDS011;16044;52.726;-2.108;2023-07-29T07:23:25;9.00;;;2.05;;
28934;SDS011;16044;52.726;-2.108;2023-07-29T07:25:55;8.32;;;2.28;;
28934;SDS011;16044;52.726;-2.108;2023-07-29T07:28:28;8.02;;;2.30;;
28934;SDS011;16044;52.726;-2.108;2023-07-29T07:30:58;7.32;;;2.15;;
28934;SDS011;16044;52.726;-2.108;2023-07-29T07:33:29;6.22;;;1.95;;
28934;SDS011;16044;52.726;-2.108;2023-07-29T07:35:59;11.43;;;2.13;;
28934;SDS011;16044;52.726;-2.108;2023-07-29T07:38:29;9.25;;;2.20;;
28934;SDS011;16044;52.726;-2.108;2023-07-29T07:41:00;6.80;;;2.25;;
28934;SDS011;16044;52.726;-2.108;2023-07-29T07:43:33;9.07;;;2.30;;
28934;SDS011;16044;52.726;-2.108;2023-07-29T07:46:03;6.35;;;2.03;;
28934;SDS011;16044;52.726;-2.108;2023-07-29T07:48:34;10.23;;;2.25;;
28934;SDS011;16044;52.726;-2.108;2023-07-29T07:51:11;8.02;;;2.10;;
28934;SDS011;16044;52.726;-2.108;2023-07-29T07:53:42;8.48;;;2.38;;
28934;SDS011;16044;52.726;-2.108;2023-07-29T07:56:12;7.82;;;2.28;;
28934;SDS011;16044;52.726;-2.108;2023-07-29T07:58:45;8.82;;;2.28;;
28934;SDS011;16044;52.726;-2.108;2023-07-29T08:01:15;9.32;;;2.30;;
28934;SDS011;16044;52.726;-2.108;2023-07-29T08:03:46;10.35;;;2.17;;
28934;SDS011;16044;52.726;-2.108;2023-07-29T08:06:16;7.53;;;2.17;;
28934;SDS011;16044;52.726;-2.108;2023-07-29T08:08:47;9.75;;;2.10;;
28934;SDS011;16044;52.726;-2.108;2023-07-29T08:11:17;7.28;;;2.15;;
28934;SDS011;16044;52.726;-2.108;2023-07-29T08:13:50;7.60;;;2.10;;
28934;SDS011;16044;52.726;-2.108;2023-07-29T08:16:20;8.55;;;2.22;;
28934;SDS011;16044;52.726;-2.108;2023-07-29T08:18:50;6.05;;;2.05;;
28934;SDS011;16044;52.726;-2.108;2023-07-29T08:21:21;7.38;;;2.00;;
28934;SDS011;16044;52.726;-2.108;2023-07-29T08:23:51;11.13;;;2.25;;
28934;SDS011;16044;52.726;-2.108;2023-07-29T08:26:22;7.15;;;1.73;;
28934;SDS011;16044;52.726;-2.108;2023-07-29T08:28:54;6.22;;;1.67;;
28934;SDS011;16044;52.726;-2.108;2023-07-29T08:31:25;10.50;;;1.98;;
28934;SDS011;16044;52.726;-2.108;2023-07-29T08:33:55;6.13;;;1.70;;
28934;SDS011;16044;52.726;-2.108;2023-07-29T08:36:26;6.80;;;2.08;;
28934;SDS011;16044;52.726;-2.108;2023-07-29T08:38:56;5.78;;;1.67;;
28934;SDS011;16044;52.726;-2.108;2023-07-29T08:41:29;6.90;;;1.60;;
28934;SDS011;16044;52.726;-2.108;2023-07-29T08:44:10;8.35;;;1.70;;
28934;SDS011;16044;52.726;-2.108;2023-07-29T08:46:46;7.88;;;1.70;;
28934;SDS011;16044;52.726;-2.108;2023-07-29T08:49:17;6.05;;;1.60;;
28934;SDS011;16044;52.726;-2.108;2023-07-29T08:51:49;5.95;;;1.55;;
28934;SDS011;16044;52.726;-2.108;2023-07-29T08:54:23;6.38;;;1.50;;
28934;SDS011;16044;52.726;-2.108;2023-07-29T08:56:54;8.65;;;1.70;;
28934;SDS011;16044;52.726;-2.108;2023-07-29T08:59:27;7.13;;;1.60;;
28934;SDS011;16044;52.726;-2.108;2023-07-29T09:01:58;7.15;;;1.45;;
28934;SDS011;16044;52.726;-2.108;2023-07-29T09:04:29;7.82;;;1.35;;
28934;SDS011;16044;52.726;-2.108;2023-07-29T09:07:00;7.15;;;1.80;;
28934;SDS011;16044;52.726;-2.108;2023-07-29T09:09:31;7.57;;;1.80;;
28934;SDS011;16044;52.726;-2.108;2023-07-29T09:12:01;6.72;;;1.50;;
28934;SDS011;16044;52.726;-2.108;2023-07-29T09:14:35;5.97;;;1.55;;
28934;SDS011;16044;52.726;-2.108;2023-07-29T09:17:06;5.70;;;1.42;;
28934;SDS011;16044;52.726;-2.108;2023-07-29T09:19:39;7.03;;;1.25;;
28934;SDS011;16044;52.726;-2.108;2023-07-29T09:22:16;6.82;;;1.75;;
28934;SDS011;16044;52.726;-2.108;2023-07-29T09:24:47;4.72;;;1.55;;
28934;SDS011;16044;52.726;-2.108;2023-07-29T09:27:24;4.32;;;1.48;;
28934;SDS011;16044;52.726;-2.108;2023-07-29T09:29:57;6.78;;;1.50;;
28934;SDS011;16044;52.726;-2.108;2023-07-29T09:32:29;8.13;;;1.88;;
28934;SDS011;16044;52.726;-2.108;2023-07-29T09:34:59;5.93;;;1.60;;
28934;SDS011;16044;52.726;-2.108;2023-07-29T09:37:30;6.78;;;1.98;;
28934;SDS011;16044;52.726;-2.108;2023-07-29T09:40:02;6.90;;;1.65;;
28934;SDS011;16044;52.726;-2.108;2023-07-29T09:42:33;4.22;;;1.20;;
28934;SDS011;16044;52.726;-2.108;2023-07-29T09:45:06;6.07;;;1.60;;
28934;SDS011;16044;52.726;-2.108;2023-07-29T09:47:37;7.60;;;1.45;;
28934;SDS011;16044;52.726;-2.108;2023-07-29T09:50:09;5.88;;;1.50;;
28934;SDS011;16044;52.726;-2.108;2023-07-29T09:52:39;6.03;;;1.45;;
28934;SDS011;16044;52.726;-2.108;2023-07-29T09:55:11;7.30;;;1.33;;
28934;SDS011;16044;52.726;-2.108;2023-07-29T09:57:42;12.70;;;1.55;;
28934;SDS011;16044;52.726;-2.108;2023-07-29T10:00:15;8.82;;;1.60;;
28934;SDS011;16044;52.726;-2.108;2023-07-29T10:02:46;5.22;;;1.60;;
28934;SDS011;16044;52.726;-2.108;2023-07-29T10:05:17;6.53;;;1.30;;
28934;SDS011;16044;52.726;-2.108;2023-07-29T10:07:48;6.47;;;1.45;;
28934;SDS011;16044;52.726;-2.108;2023-07-29T10:10:19;5.60;;;1.42;;
28934;SDS011;16044;52.726;-2.108;2023-07-29T10:12:50;5.32;;;1.48;;
28934;SDS011;16044;52.726;-2.108;2023-07-29T10:15:24;5.45;;;1.40;;
28934;SDS011;16044;52.726;-2.108;2023-07-29T10:17:55;8.20;;;1.73;;
28934;SDS011;16044;52.726;-2.108;2023-07-29T10:20:27;8.32;;;1.30;;
28934;SDS011;16044;52.726;-2.108;2023-07-29T10:22:59;6.95;;;1.20;;
28934;SDS011;16044;52.726;-2.108;2023-07-29T10:25:31;6.15;;;1.52;;
28934;SDS011;16044;52.726;-2.108;2023-07-29T10:28:08;5.80;;;1.20;;
28934;SDS011;16044;52.726;-2.108;2023-07-29T10:30:45;6.25;;;1.60;;
28934;SDS011;16044;52.726;-2.108;2023-07-29T10:33:16;5.88;;;1.23;;
28934;SDS011;16044;52.726;-2.108;2023-07-29T10:35:46;5.15;;;1.17;;
28934;SDS011;16044;52.726;-2.108;2023-07-29T10:38:17;6.47;;;1.30;;
28934;SDS011;16044;52.726;-2.108;2023-07-29T10:40:52;6.72;;;1.40;;
28934;SDS011;16044;52.726;-2.108;2023-07-29T10:43:26;7.65;;;1.27;;
28934;SDS011;16044;52.726;-2.108;2023-07-29T10:48:54;6.60;;;1.50;;
28934;SDS011;16044;52.726;-2.108;2023-07-29T10:54:02;4.03;;;1.30;;
28934;SDS011;16044;52.726;-2.108;2023-07-29T10:56:40;4.38;;;1.08;;
28934;SDS011;16044;52.726;-2.108;2023-07-29T11:02:11;7.07;;;2.00;;
28934;SDS011;16044;52.726;-2.108;2023-07-29T11:04:47;8.18;;;1.85;;
28934;SDS011;16044;52.726;-2.108;2023-07-29T11:07:26;6.07;;;1.30;;
28934;SDS011;16044;52.726;-2.108;2023-07-29T11:09:58;4.80;;;1.25;;
28934;SDS011;16044;52.726;-2.108;2023-07-29T11:12:40;7.70;;;1.45;;
28934;SDS011;16044;52.726;-2.108;2023-07-29T11:15:19;9.55;;;1.67;;
28934;SDS011;16044;52.726;-2.108;2023-07-29T11:17:54;4.95;;;1.35;;
28934;SDS011;16044;52.726;-2.108;2023-07-29T11:20:26;6.75;;;1.50;;
28934;SDS011;16044;52.726;-2.108;2023-07-29T11:22:59;4.55;;;1.10;;
28934;SDS011;16044;52.726;-2.108;2023-07-29T11:25:32;4.75;;;1.20;;
28934;SDS011;16044;52.726;-2.108;2023-07-29T11:28:03;7.30;;;1.08;;
28934;SDS011;16044;52.726;-2.108;2023-07-29T11:30:33;6.70;;;1.25;;
28934;SDS011;16044;52.726;-2.108;2023-07-29T11:33:06;6.93;;;1.30;;
28934;SDS011;16044;52.726;-2.108;2023-07-29T11:35:37;6.10;;;1.30;;
28934;SDS011;16044;52.726;-2.108;2023-07-29T11:38:07;5.57;;;1.15;;
28934;SDS011;16044;52.726;-2.108;2023-07-29T11:40:38;4.75;;;1.08;;
28934;SDS011;16044;52.726;-2.108;2023-07-29T11:43:08;7.30;;;1.15;;
28934;SDS011;16044;52.726;-2.108;2023-07-29T11:45:40;7.25;;;1.10;;
28934;SDS011;16044;52.726;-2.108;2023-07-29T11:48:21;5.15;;;1.30;;
28934;SDS011;16044;52.726;-2.108;2023-07-29T11:50:57;6.40;;;1.73;;
28934;SDS011;16044;52.726;-2.108;2023-07-29T11:53:28;4.50;;;1.00;;
28934;SDS011;16044;52.726;-2.108;2023-07-29T11:55:59;7.10;;;1.20;;
28934;SDS011;16044;52.726;-2.108;2023-07-29T11:58:29;3.85;;;1.15;;
28934;SDS011;16044;52.726;-2.108;2023-07-29T12:01:01;4.80;;;1.10;;
28934;SDS011;16044;52.726;-2.108;2023-07-29T12:03:35;7.25;;;1.38;;
28934;SDS011;16044;52.726;-2.108;2023-07-29T12:06:09;5.40;;;1.38;;
28934;SDS011;16044;52.726;-2.108;2023-07-29T12:08:40;3.35;;;0.95;;
28934;SDS011;16044;52.726;-2.108;2023-07-29T12:11:11;6.72;;;1.50;;
28934;SDS011;16044;52.726;-2.108;2023-07-29T12:13:43;5.93;;;1.35;;
28934;SDS011;16044;52.726;-2.108;2023-07-29T12:16:16;3.97;;;1.10;;
28934;SDS011;16044;52.726;-2.108;2023-07-29T12:18:49;4.60;;;1.25;;
28934;SDS011;16044;52.726;-2.108;2023-07-29T12:21:20;4.85;;;1.13;;
28934;SDS011;16044;52.726;-2.108;2023-07-29T12:23:50;4.28;;;1.30;;
28934;SDS011;16044;52.726;-2.108;2023-07-29T12:26:27;4.35;;;1.40;;
28934;SDS011;16044;52.726;-2.108;2023-07-29T12:28:58;4.90;;;1.20;;
28934;SDS011;16044;52.726;-2.108;2023-07-29T12:31:30;5.38;;;1.13;;
28934;SDS011;16044;52.726;-2.108;2023-07-29T12:34:04;3.70;;;1.02;;
28934;SDS011;16044;52.726;-2.108;2023-07-29T12:36:41;5.13;;;0.80;;
28934;SDS011;16044;52.726;-2.108;2023-07-29T12:39:17;4.18;;;1.00;;
28934;SDS011;16044;52.726;-2.108;2023-07-29T12:41:48;6.22;;;1.20;;
28934;SDS011;16044;52.726;-2.108;2023-07-29T12:44:20;4.88;;;1.20;;
28934;SDS011;16044;52.726;-2.108;2023-07-29T12:46:51;3.72;;;0.80;;
28934;SDS011;16044;52.726;-2.108;2023-07-29T12:49:24;2.72;;;0.98;;
28934;SDS011;16044;52.726;-2.108;2023-07-29T12:51:56;4.85;;;1.00;;
28934;SDS011;16044;52.726;-2.108;2023-07-29T12:54:27;5.25;;;1.23;;
28934;SDS011;16044;52.726;-2.108;2023-07-29T12:56:57;3.45;;;1.05;;
28934;SDS011;16044;52.726;-2.108;2023-07-29T12:59:27;5.10;;;1.02;;
28934;SDS011;16044;52.726;-2.108;2023-07-29T13:01:57;9.65;;;1.30;;
28934;SDS011;16044;52.726;-2.108;2023-07-29T13:04:32;5.57;;;1.05;;
28934;SDS011;16044;52.726;-2.108;2023-07-29T13:07:03;6.78;;;1.40;;
28934;SDS011;16044;52.726;-2.108;2023-07-29T13:09:34;4.88;;;1.13;;
28934;SDS011;16044;52.726;-2.108;2023-07-29T13:12:05;4.20;;;1.00;;
28934;SDS011;16044;52.726;-2.108;2023-07-29T13:14:36;5.30;;;1.20;;
28934;SDS011;16044;52.726;-2.108;2023-07-29T13:17:07;6.75;;;1.50;;
28934;SDS011;16044;52.726;-2.108;2023-07-29T13:19:40;9.20;;;1.48;;
28934;SDS011;16044;52.726;-2.108;2023-07-29T13:22:10;5.50;;;1.20;;
28934;SDS011;16044;52.726;-2.108;2023-07-29T13:24:41;6.68;;;1.52;;
28934;SDS011;16044;52.726;-2.108;2023-07-29T13:27:12;4.13;;;1.10;;
28934;SDS011;16044;52.726;-2.108;2023-07-29T13:29:42;7.50;;;1.50;;
28934;SDS011;16044;52.726;-2.108;2023-07-29T13:32:13;4.63;;;1.40;;
28934;SDS011;16044;52.726;-2.108;2023-07-29T13:34:46;5.35;;;1.20;;
28934;SDS011;16044;52.726;-2.108;2023-07-29T13:37:16;4.40;;;1.35;;
28934;SDS011;16044;52.726;-2.108;2023-07-29T13:39:47;5.38;;;1.40;;
28934;SDS011;16044;52.726;-2.108;2023-07-29T13:42:17;6.68;;;1.27;;
28934;SDS011;16044;52.726;-2.108;2023-07-29T13:44:47;7.70;;;1.45;;
28934;SDS011;16044;52.726;-2.108;2023-07-29T13:47:18;7.03;;;1.55;;
28934;SDS011;16044;52.726;-2.108;2023-07-29T13:49:51;7.80;;;1.70;;
28934;SDS011;16044;52.726;-2.108;2023-07-29T13:52:21;5.63;;;1.50;;
28934;SDS011;16044;52.726;-2.108;2023-07-29T13:54:52;5.78;;;1.25;;
28934;SDS011;16044;52.726;-2.108;2023-07-29T13:57:22;7.32;;;1.65;;
28934;SDS011;16044;52.726;-2.108;2023-07-29T13:59:52;5.47;;;1.42;;
28934;SDS011;16044;52.726;-2.108;2023-07-29T14:02:23;6.95;;;1.85;;
28934;SDS011;16044;52.726;-2.108;2023-07-29T14:04:56;7.32;;;1.60;;
28934;SDS011;16044;52.726;-2.108;2023-07-29T14:07:26;5.95;;;1.55;;
28934;SDS011;16044;52.726;-2.108;2023-07-29T14:09:56;9.13;;;1.58;;
28934;SDS011;16044;52.726;-2.108;2023-07-29T14:12:28;6.15;;;1.73;;
28934;SDS011;16044;52.726;-2.108;2023-07-29T14:14:58;7.82;;;1.45;;
28934;SDS011;16044;52.726;-2.108;2023-07-29T14:17:28;6.55;;;1.58;;
28934;SDS011;16044;52.726;-2.108;2023-07-29T14:20:01;7.28;;;1.60;;
28934;SDS011;16044;52.726;-2.108;2023-07-29T14:22:32;5.95;;;1.63;;
28934;SDS011;16044;52.726;-2.108;2023-07-29T14:25:03;6.10;;;1.20;;
28934;SDS011;16044;52.726;-2.108;2023-07-29T14:27:34;6.47;;;1.50;;
28934;SDS011;16044;52.726;-2.108;2023-07-29T14:30:05;5.47;;;1.30;;
28934;SDS011;16044;52.726;-2.108;2023-07-29T14:32:37;5.22;;;1.23;;
28934;SDS011;16044;52.726;-2.108;2023-07-29T14:35:10;7.00;;;1.13;;
28934;SDS011;16044;52.726;-2.108;2023-07-29T14:37:40;5.57;;;1.23;;
28934;SDS011;16044;52.726;-2.108;2023-07-29T14:40:10;7.65;;;1.30;;
28934;SDS011;16044;52.726;-2.108;2023-07-29T14:42:41;6.10;;;1.10;;
28934;SDS011;16044;52.726;-2.108;2023-07-29T14:45:11;7.22;;;1.17;;
28934;SDS011;16044;52.726;-2.108;2023-07-29T14:47:41;3.20;;;1.08;;
28934;SDS011;16044;52.726;-2.108;2023-07-29T14:50:14;3.72;;;1.13;;
28934;SDS011;16044;52.726;-2.108;2023-07-29T14:52:45;6.07;;;1.17;;
28934;SDS011;16044;52.726;-2.108;2023-07-29T14:55:16;3.13;;;0.88;;
28934;SDS011;16044;52.726;-2.108;2023-07-29T14:57:47;3.75;;;0.98;;
28934;SDS011;16044;52.726;-2.108;2023-07-29T15:00:17;3.17;;;1.10;;
28934;SDS011;16044;52.726;-2.108;2023-07-29T15:02:48;5.10;;;1.00;;
28934;SDS011;16044;52.726;-2.108;2023-07-29T15:05:21;4.60;;;1.27;;
28934;SDS011;16044;52.726;-2.108;2023-07-29T15:07:51;5.93;;;1.30;;